Time;durP1;ratioP1;P1;durP2;ratioP2;P2;SDS_P1;SDS_P2;PMS_P1;PMS_P2;Temp;Humidity;BMP_temperature;BMP_pressure;BME280_temperature;BME280_humidity;BME280_pressure;Samples;Min_cycle;Max_cycle;Signal;HPM_P1;HPM_P2
2022/11/24 00:02:11;;;;;;;9.55;2.28;;;;;;;6.60;76.80;99261.53;10123094;29;20112;-77
2022/11/24 00:07:14;;;;;;;9.15;2.28;;;;;;;6.58;76.54;99260.81;10127121;29;20462;-78
2022/11/24 00:12:18;;;;;;;5.70;2.42;;;;;;;6.70;76.30;99269.66;10093979;29;20506;-78
2022/11/24 00:17:21;;;;;;;7.95;2.47;;;;;;;6.68;76.33;99271.59;10101495;29;20041;-78
2022/11/24 00:22:24;;;;;;;7.95;2.58;;;;;;;6.59;76.96;99281.19;10100631;29;20091;-78
2022/11/24 00:27:28;;;;;;;11.05;3.67;;;;;;;6.63;76.51;99277.28;10128349;29;20084;-77
2022/11/24 00:32:31;;;;;;;9.70;3.33;;;;;;;6.79;76.54;99280.38;10128339;29;20049;-78
2022/11/24 00:37:34;;;;;;;10.18;3.00;;;;;;;6.78;76.55;99291.22;10132913;29;20514;-77
2022/11/24 00:42:38;;;;;;;8.45;2.83;;;;;;;6.87;76.34;99297.59;10125644;29;20136;-78
2022/11/24 00:47:41;;;;;;;9.93;3.00;;;;;;;6.89;76.68;99301.88;10106080;29;20158;-77
2022/11/24 00:52:44;;;;;;;10.52;2.47;;;;;;;6.83;76.58;99300.53;10099690;29;20077;-77
2022/11/24 00:57:48;;;;;;;8.25;2.72;;;;;;;6.86;76.58;99299.44;10102302;29;20092;-77
2022/11/24 01:02:52;;;;;;;13.05;3.95;;;;;;;6.91;76.56;99309.75;10115896;29;20050;-77
2022/11/24 01:07:55;;;;;;;9.38;3.17;;;;;;;6.63;76.87;99309.31;10126898;29;20076;-77
2022/11/24 01:12:59;;;;;;;10.77;3.08;;;;;;;6.82;76.90;99309.50;10138215;29;20692;-77
2022/11/24 01:18:03;;;;;;;22.48;4.72;;;;;;;6.82;77.20;99319.31;10101892;29;20080;-77
2022/11/24 01:23:06;;;;;;;11.43;3.10;;;;;;;6.81;77.29;99317.66;10101176;29;20068;-78
2022/11/24 01:28:10;;;;;;;7.97;3.08;;;;;;;6.64;77.50;99313.69;10099557;29;20519;-77
2022/11/24 01:33:13;;;;;;;13.20;3.65;;;;;;;6.58;77.74;99314.16;10102902;29;20056;-78
2022/11/24 01:38:16;;;;;;;13.65;3.63;;;;;;;6.40;78.03;99319.19;10100257;29;20123;-78
2022/11/24 01:43:21;;;;;;;20.27;3.88;;;;;;;6.47;78.20;99324.88;10108786;29;20384;-77
2022/11/24 01:48:29;;;;;;;18.92;5.15;;;;;;;6.43;78.31;99328.78;10100313;29;20155;-78
2022/11/24 01:53:31;;;;;;;13.15;3.70;;;;;;;6.38;78.34;99329.97;10129323;29;20546;-77
2022/11/24 01:58:38;;;;;;;18.17;3.40;;;;;;;6.31;78.75;99335.94;10112681;29;20502;-78
2022/11/24 02:03:44;;;;;;;17.30;3.67;;;;;;;6.28;79.07;99330.81;10131359;29;20052;-78
2022/11/24 02:08:51;;;;;;;17.23;3.60;;;;;;;6.31;78.80;99335.94;10123141;29;20053;-78
2022/11/24 02:13:57;;;;;;;11.70;4.45;;;;;;;6.19;79.10;99345.75;10126456;29;20068;-78
2022/11/24 02:19:00;;;;;;;21.95;3.45;;;;;;;6.22;79.52;99356.16;10114947;29;20045;-78
2022/11/24 02:24:08;;;;;;;15.55;3.60;;;;;;;6.26;79.28;99354.97;10118878;29;20049;-78
2022/11/24 02:29:14;;;;;;;15.43;4.05;;;;;;;6.26;79.65;99365.63;10124575;29;20057;-78
2022/11/24 02:34:17;;;;;;;14.32;3.97;;;;;;;6.35;79.34;99370.22;10121730;29;20107;-78
2022/11/24 02:39:20;;;;;;;17.77;3.70;;;;;;;6.35;79.67;99375.56;10117157;29;20502;-77
2022/11/24 02:44:28;;;;;;;16.05;3.55;;;;;;;6.40;79.19;99372.53;10111230;29;20069;-78
2022/11/24 02:49:31;;;;;;;16.90;3.58;;;;;;;6.29;79.82;99378.72;10128750;29;20083;-77
2022/11/24 02:54:34;;;;;;;18.67;3.72;;;;;;;6.35;79.40;99388.91;10137077;29;20104;-78
2022/11/24 02:59:39;;;;;;;14.70;3.38;;;;;;;6.33;79.56;99398.00;10134702;29;20044;-78
2022/11/24 03:04:43;;;;;;;16.70;3.67;;;;;;;6.32;79.82;99388.31;10114559;29;20068;-79
2022/11/24 03:09:46;;;;;;;22.55;3.72;;;;;;;6.33;79.54;99401.50;10131025;29;20045;-78
2022/11/24 03:14:50;;;;;;;19.67;3.58;;;;;;;6.16;80.35;99408.16;10125194;23;20097;-76
2022/11/24 03:19:53;;;;;;;27.33;4.10;;;;;;;6.43;79.51;99406.97;10120004;29;20135;-78
2022/11/24 03:24:56;;;;;;;17.75;4.40;;;;;;;6.41;79.79;99408.91;10079398;29;20044;-78
2022/11/24 03:30:00;;;;;;;15.07;4.00;;;;;;;6.44;79.27;99418.47;10066258;29;20515;-78
2022/11/24 03:35:03;;;;;;;21.45;3.90;;;;;;;6.35;79.20;99423.56;10072532;29;20081;-78
2022/11/24 03:40:07;;;;;;;23.55;4.28;;;;;;;6.25;79.75;99424.41;10082872;29;20045;-78
2022/11/24 03:45:11;;;;;;;18.48;4.78;;;;;;;6.39;79.65;99416.19;10074640;29;20049;-78
2022/11/24 03:50:34;;;;;;;17.23;3.20;;;;;;;6.40;79.64;99424.06;10074860;29;20049;-77
2022/11/24 03:55:37;;;;;;;17.45;3.75;;;;;;;6.36;79.83;99422.63;10063252;29;20109;-77
2022/11/24 04:00:41;;;;;;;17.70;3.15;;;;;;;6.56;78.35;99425.53;10077703;29;20057;-77
2022/11/24 04:05:44;;;;;;;12.27;3.25;;;;;;;6.65;78.16;99429.28;10082406;29;20049;-77
2022/11/24 04:10:49;;;;;;;;;;;;;;;6.55;78.92;99435.34;10082536;29;20049;-77
2022/11/24 04:15:53;;;;;;;17.13;3.08;;;;;;;6.58;78.55;99434.25;10078447;29;20394;-77
2022/11/24 04:20:56;;;;;;;18.05;3.05;;;;;;;6.72;77.83;99442.03;10069188;29;20050;-78
2022/11/24 04:25:59;;;;;;;21.25;3.63;;;;;;;6.63;78.33;99445.41;10076827;29;20050;-78
2022/11/24 04:31:04;;;;;;;15.82;3.45;;;;;;;6.73;78.07;99451.72;10071523;29;20049;-79
2022/11/24 04:36:07;;;;;;;17.95;2.97;;;;;;;6.73;78.97;99446.38;10073154;29;20053;-78
2022/11/24 04:41:10;;;;;;;18.98;4.25;;;;;;;6.60;79.56;99449.16;10072794;29;20061;-78
2022/11/24 04:46:14;;;;;;;14.40;2.03;;;;;;;6.52;79.48;99467.59;10070010;29;20045;-76
2022/11/24 04:51:17;;;;;;;18.90;2.70;;;;;;;6.76;78.51;99469.31;10074117;29;20060;-78
2022/11/24 04:56:20;;;;;;;18.70;3.22;;;;;;;6.91;77.67;99461.91;10075369;29;20150;-77
2022/11/24 05:01:24;;;;;;;15.40;2.88;;;;;;;6.91;77.60;99484.16;10087721;29;20049;-77
2022/11/24 05:06:27;;;;;;;14.48;2.70;;;;;;;6.73;78.34;99481.06;10079511;29;20056;-77
2022/11/24 05:11:30;;;;;;;11.73;3.08;;;;;;;6.69;77.97;99484.97;10064735;29;20094;-76
2022/11/24 05:16:34;;;;;;;14.25;2.60;;;;;;;6.53;78.35;99495.16;10075570;29;20051;-77
2022/11/24 05:21:37;;;;;;;16.33;2.70;;;;;;;6.79;77.66;99491.25;10085872;29;20051;-77
2022/11/24 05:26:40;;;;;;;17.67;3.40;;;;;;;6.86;77.13;99510.31;10080928;29;20169;-77
2022/11/24 05:31:44;;;;;;;12.65;2.88;;;;;;;6.81;76.86;99521.34;10071986;29;20056;-77
2022/11/24 05:36:53;;;;;;;19.38;3.53;;;;;;;6.78;77.23;99526.94;10071392;29;20053;-77
2022/11/24 05:41:55;;;;;;;19.25;3.13;;;;;;;6.82;76.81;99527.53;10075466;29;20097;-77
2022/11/24 05:47:00;;;;;;;14.38;3.55;;;;;;;6.77;76.98;99538.56;10082814;29;20472;-77
2022/11/24 05:52:02;;;;;;;12.52;3.13;;;;;;;6.80;76.94;99534.81;10070925;29;20495;-77
2022/11/24 05:57:05;;;;;;;17.75;3.95;;;;;;;6.70;77.00;99540.03;10073932;29;20087;-77
2022/11/24 06:02:09;;;;;;;19.73;3.08;;;;;;;6.63;77.39;99536.13;10080854;29;20453;-77
2022/11/24 06:07:13;;;;;;;18.45;3.22;;;;;;;6.62;77.76;99545.13;10070742;29;20164;-77
2022/11/24 06:12:16;;;;;;;15.73;3.83;;;;;;;6.71;77.60;99555.06;10077578;29;20055;-77
2022/11/24 06:17:20;;;;;;;21.33;3.72;;;;;;;6.68;78.33;99559.81;10069905;29;20054;-77
2022/11/24 06:22:23;;;;;;;16.27;2.90;;;;;;;6.70;79.46;99565.88;10062201;29;20098;-77
2022/11/24 06:27:25;;;;;;;19.02;3.97;;;;;;;6.87;79.12;99577.91;10070194;29;20053;-77
2022/11/24 06:32:30;;;;;;;17.77;3.92;;;;;;;6.89;79.42;99578.66;10071098;29;20045;-76
2022/11/24 06:37:36;;;;;;;23.08;3.17;;;;;;;7.08;78.35;99580.75;10074528;29;20049;-77
2022/11/24 06:42:38;;;;;;;20.27;4.75;;;;;;;6.99;78.72;99592.97;10069861;29;20541;-77
2022/11/24 06:47:42;;;;;;;15.60;4.15;;;;;;;7.17;77.97;99593.34;10075599;29;20046;-77
2022/11/24 06:52:45;;;;;;;28.05;4.20;;;;;;;6.97;78.65;99594.94;10082444;29;20041;-77
2022/11/24 06:57:48;;;;;;;17.23;3.03;;;;;;;6.93;78.80;99602.31;10075937;29;20418;-77
2022/11/24 07:02:52;;;;;;;22.23;3.53;;;;;;;6.97;78.48;99611.81;10072272;29;20049;-77
2022/11/24 07:07:55;;;;;;;10.00;3.15;;;;;;;6.89;78.98;99619.56;10084419;29;20052;-79
2022/11/24 07:12:58;;;;;;;15.85;3.10;;;;;;;6.88;80.43;99638.34;10072345;29;20410;-79
2022/11/24 07:18:02;;;;;;;21.40;3.97;;;;;;;7.10;79.69;99632.19;10077939;29;20060;-77
2022/11/24 07:23:05;;;;;;;23.77;3.67;;;;;;;6.95;81.44;99644.94;10069844;29;20045;-77
2022/11/24 07:28:08;;;;;;;16.35;4.28;;;;;;;6.78;83.01;99654.22;10070133;29;20122;-77
2022/11/24 07:33:13;;;;;;;14.73;3.53;;;;;;;6.75;83.76;99662.47;10067619;29;20071;-77
2022/11/24 07:38:15;;;;;;;18.70;3.75;;;;;;;6.79;84.51;99671.91;10074527;29;20491;-78
2022/11/24 07:43:18;;;;;;;21.25;4.32;;;;;;;6.96;83.88;99673.31;10073650;29;20110;-78
2022/11/24 07:48:25;;;;;;;19.58;3.85;;;;;;;6.97;83.74;99675.03;10087740;29;20049;-78
2022/11/24 07:53:28;;;;;;;17.63;3.63;;;;;;;6.98;83.70;99680.25;10071092;29;20133;-77
2022/11/24 07:58:33;;;;;;;24.83;4.75;;;;;;;6.93;83.90;99690.44;10074337;29;20081;-78
2022/11/24 08:03:37;;;;;;;22.98;4.72;;;;;;;6.99;84.19;99689.97;10086317;29;20120;-77
2022/11/24 08:08:40;;;;;;;24.90;3.95;;;;;;;7.20;83.83;99691.94;10079667;29;20551;-77
2022/11/24 08:13:44;;;;;;;17.60;4.97;;;;;;;7.59;82.98;99703.97;10084661;29;20121;-78
2022/11/24 08:18:51;;;;;;;14.55;3.85;;;;;;;8.01;81.65;99700.66;10082960;29;20075;-78
2022/11/24 08:23:55;;;;;;;23.02;4.75;;;;;;;8.35;78.76;99704.09;10086049;29;20045;-77
2022/11/24 08:28:58;;;;;;;18.20;3.67;;;;;;;7.89;78.98;99711.38;10077270;29;20049;-78
2022/11/24 08:34:04;;;;;;;19.33;4.07;;;;;;;8.10;77.71;99706.13;10082814;29;20788;-78
2022/11/24 08:39:07;;;;;;;22.15;5.28;;;;;;;7.93;79.19;99703.97;10078967;29;20164;-77
2022/11/24 08:44:13;;;;;;;24.55;4.13;;;;;;;8.45;77.92;99706.84;10077478;29;20136;-78
2022/11/24 08:49:18;;;;;;;17.80;3.92;;;;;;;8.70;76.04;99721.78;10072222;29;20080;-79
2022/11/24 08:54:21;;;;;;;15.45;4.95;;;;;;;9.14;74.44;99727.88;10079399;29;20037;-78
2022/11/24 08:59:24;;;;;;;22.30;4.45;;;;;;;9.12;73.56;99738.72;10078556;29;20164;-78
2022/11/24 09:04:28;;;;;;;16.42;3.78;;;;;;;8.63;74.48;99744.66;10076700;29;20081;-78
2022/11/24 09:09:31;;;;;;;19.58;3.80;;;;;;;8.30;75.85;99747.28;10082812;29;20067;-78
2022/11/24 09:14:34;;;;;;;14.77;2.72;;;;;;;7.81;77.98;99753.06;10120580;23;20071;-78
2022/11/24 09:19:38;;;;;;;22.13;4.15;;;;;;;7.75;78.25;99750.88;10135664;29;20109;-77
2022/11/24 09:24:41;;;;;;;23.00;4.13;;;;;;;7.80;78.05;99759.41;10126791;29;20420;-78
2022/11/24 09:29:44;;;;;;;20.33;3.38;;;;;;;7.91;77.17;99767.41;10085492;29;20075;-77
2022/11/24 09:34:49;;;;;;;12.40;3.17;;;;;;;8.11;76.65;99774.69;10060268;29;20051;-76
2022/11/24 09:39:52;;;;;;;15.60;3.15;;;;;;;7.98;76.54;99775.78;10060471;29;20112;-77
2022/11/24 09:45:11;;;;;;;18.73;3.33;;;;;;;8.04;76.80;99786.88;10110579;29;20045;-77
2022/11/24 09:50:19;;;;;;;17.35;2.88;;;;;;;8.14;76.09;99795.81;10137200;29;20083;-77
2022/11/24 09:55:44;;;;;;;18.10;3.88;;;;;;;7.99;76.69;99790.88;10121085;29;20486;-77
2022/11/24 10:00:51;;;;;;;20.25;4.03;;;;;;;8.18;76.06;99797.31;10093850;29;20057;-77
2022/11/24 10:05:55;;;;;;;17.60;4.20;;;;;;;8.36;75.58;99802.13;10059679;29;20129;-78
2022/11/24 10:11:02;;;;;;;20.65;3.63;;;;;;;8.13;75.95;99810.19;10059069;29;20553;-78
2022/11/24 10:16:13;;;;;;;17.38;3.65;;;;;;;8.42;75.48;99812.38;10057916;29;20073;-78
2022/11/24 10:21:41;;;;;;;17.90;3.65;;;;;;;7.94;77.49;99818.81;10667502;27;20369;-80
2022/11/24 10:26:51;;;;;;;21.63;4.30;;;;;;;7.63;79.73;99831.06;10664676;27;20118;-79
2022/11/24 10:31:56;;;;;;;16.58;3.70;;;;;;;7.43;81.82;99829.94;10682745;27;20039;-78
2022/11/24 10:37:04;;;;;;;15.90;3.55;;;;;;;7.48;82.21;99824.22;10682634;27;20038;-76
2022/11/24 10:42:17;;;;;;;12.30;4.35;;;;;;;7.56;82.40;99845.03;10660851;27;20075;-78
2022/11/24 10:47:21;;;;;;;17.88;5.30;;;;;;;7.30;83.54;99834.53;10671156;27;20492;-79
2022/11/24 10:52:28;;;;;;;14.48;4.40;;;;;;;7.50;83.07;99844.53;10640475;27;20122;-78
2022/11/24 10:57:33;;;;;;;16.73;5.82;;;;;;;7.48;83.44;99846.47;10622613;27;20114;-79
2022/11/24 11:02:37;;;;;;;14.48;4.72;;;;;;;7.49;84.56;99847.34;10623675;27;20044;-79
2022/11/24 11:07:41;;;;;;;13.23;4.60;;;;;;;7.33;84.41;99844.13;10660180;27;20074;-79
2022/11/24 11:12:45;;;;;;;17.15;5.80;;;;;;;7.66;83.25;99860.25;10641683;27;20047;-81
2022/11/24 11:17:51;;;;;;;15.65;4.82;;;;;;;7.71;81.54;99851.88;10623321;27;20180;-78
2022/11/24 11:22:57;;;;;;;14.43;5.50;;;;;;;7.42;80.97;99859.44;10622335;28;20035;-77
2022/11/24 11:28:25;;;;;;;12.00;5.32;;;;;;;7.64;80.67;99862.19;10621365;27;20079;-78
2022/11/24 11:33:29;;;;;;;19.30;6.78;;;;;;;7.34;81.52;99881.41;10593149;28;20060;-79
2022/11/24 11:38:54;;;;;;;12.95;5.32;;;;;;;7.43;80.45;99890.53;10594591;28;20042;-82
2022/11/24 11:44:08;;;;;;;12.27;5.78;;;;;;;7.43;81.06;99895.88;10589857;28;20050;-80
2022/11/24 11:49:12;;;;;;;12.80;6.10;;;;;;;7.33;81.30;99901.09;10600927;27;20047;-76
2022/11/24 11:54:27;;;;;;;11.70;7.50;;;;;;;7.57;81.66;99906.41;10640223;27;20035;-79
2022/11/24 11:59:52;;;;;;;10.65;6.57;;;;;;;7.66;80.85;99915.53;10588273;28;20035;-78
2022/11/24 12:04:58;;;;;;;15.73;6.95;;;;;;;7.57;80.90;99916.22;10588635;27;20114;-78
2022/11/24 12:10:12;;;;;;;13.95;6.40;;;;;;;7.71;80.37;99919.56;10586495;28;20047;-78
2022/11/24 12:15:23;;;;;;;16.02;5.80;;;;;;;7.59;79.65;99925.81;10584840;28;20130;-77
2022/11/24 12:20:47;;;;;;;17.00;6.38;;;;;;;7.17;82.20;99921.91;10584783;28;20119;-78
2022/11/24 12:25:59;;;;;;;10.70;5.35;;;;;;;7.39;79.70;99931.84;10585168;28;20044;-79
2022/11/24 12:31:05;;;;;;;11.13;6.23;;;;;;;7.23;80.17;99940.13;10588205;27;20591;-78
2022/11/24 12:36:23;;;;;;;12.88;7.28;;;;;;;7.35;79.88;99952.59;10610928;27;20088;-78
2022/11/24 12:41:42;;;;;;;9.90;7.30;;;;;;;7.78;77.46;99949.34;10611524;27;20040;-79
2022/11/24 12:46:54;;;;;;;14.85;7.03;;;;;;;7.03;81.04;99966.50;10593385;27;20092;-79
2022/11/24 12:52:03;;;;;;;15.23;7.63;;;;;;;7.24;81.06;99956.06;10630530;27;20066;-78
2022/11/24 12:57:14;;;;;;;13.25;8.88;;;;;;;7.31;80.92;99963.63;10628768;27;20047;-78
2022/11/24 13:02:30;;;;;;;15.52;8.95;;;;;;;8.00;78.72;99953.03;10629030;27;20056;-80
2022/11/24 13:07:42;;;;;;;13.95;7.72;;;;;;;7.72;77.67;99958.69;10628222;27;20072;-78
2022/11/24 13:12:57;;;;;;;14.65;8.75;;;;;;;8.01;76.92;99950.28;10627656;27;20190;-79
2022/11/24 13:18:00;;;;;;;12.82;9.05;;;;;;;7.78;77.54;99978.75;10621263;27;20061;-79
2022/11/24 13:23:29;;;;;;;15.88;9.77;;;;;;;8.02;77.12;99983.22;10610557;27;20478;-79
2022/11/24 13:29:00;;;;;;;17.92;9.57;;;;;;;7.93;78.13;99985.63;10628680;27;20149;-79
2022/11/24 13:35:04;;;;;;;15.60;10.10;;;;;;;8.32;76.83;99985.34;10628478;27;20039;-77
2022/11/24 13:40:43;;;;;;;46.60;12.52;;;;;;;8.06;77.37;99990.88;10580266;27;20385;-79
2022/11/24 13:46:09;;;;;;;18.73;10.05;;;;;;;8.18;77.16;99981.91;10607344;27;20043;-79
2022/11/24 13:51:23;;;;;;;16.55;9.80;;;;;;;8.58;75.87;99988.66;10585133;28;20073;-77
2022/11/24 13:56:31;;;;;;;15.57;8.80;;;;;;;8.60;75.08;99989.41;10617406;27;20050;-79
2022/11/24 14:01:39;;;;;;;14.55;9.23;;;;;;;9.17;73.52;99992.91;10626705;27;20134;-79
2022/11/24 14:06:44;;;;;;;16.50;7.07;;;;;;;8.60;73.95;100005.47;10597318;27;20047;-79
2022/11/24 14:12:01;;;;;;;15.77;7.57;;;;;;;8.47;74.40;99996.69;10590222;28;20071;-80
2022/11/24 14:17:19;;;;;;;16.83;7.63;;;;;;;8.35;74.64;99998.47;10596629;27;20048;-78
2022/11/24 14:22:25;;;;;;;12.43;7.65;;;;;;;8.23;75.55;100007.44;10607076;28;20040;-80
2022/11/24 14:27:33;;;;;;;15.88;7.45;;;;;;;8.66;74.47;100001.44;10594655;27;20532;-79
2022/11/24 14:32:37;;;;;;;13.05;7.50;;;;;;;8.60;74.73;100002.78;10588190;28;20046;-79
2022/11/24 14:37:40;;;;;;;13.80;6.97;;;;;;;8.73;72.66;100018.75;10619544;27;20039;-79
2022/11/24 14:42:50;;;;;;;12.60;7.07;;;;;;;8.43;73.34;100014.78;10587000;28;20451;-80
2022/11/24 14:47:54;;;;;;;13.05;6.82;;;;;;;8.14;74.57;100022.38;10600694;27;20078;-79
2022/11/24 14:52:58;;;;;;;13.20;6.80;;;;;;;7.90;75.53;100033.16;10588169;28;20099;-79
2022/11/24 14:58:02;;;;;;;15.20;7.30;;;;;;;7.85;76.02;100036.16;10589516;28;20036;-78
2022/11/24 15:03:15;;;;;;;9.40;6.15;;;;;;;7.75;76.06;100035.13;10588347;28;20048;-79
2022/11/24 15:08:18;;;;;;;16.98;6.93;;;;;;;7.71;76.30;100045.22;10595462;28;20039;-79
2022/11/24 15:13:24;;;;;;;14.52;6.57;;;;;;;7.79;75.71;100044.66;10609476;22;20366;-76
2022/11/24 15:18:35;;;;;;;15.75;7.35;;;;;;;7.81;75.27;100050.72;10477817;28;20040;-76
2022/11/24 15:23:40;;;;;;;17.90;6.97;;;;;;;7.77;75.59;100057.28;10481276;28;20597;-76
2022/11/24 15:28:46;;;;;;;19.58;6.80;;;;;;;7.75;75.87;100061.88;10487567;28;20041;-76
2022/11/24 15:33:49;;;;;;;13.40;6.47;;;;;;;7.77;75.62;100059.94;10488763;28;20160;-76
2022/11/24 15:38:51;;;;;;;13.32;7.63;;;;;;;7.77;75.86;100061.78;10458002;28;20047;-76
2022/11/24 15:43:58;;;;;;;23.05;9.02;;;;;;;7.80;75.87;100069.56;10473863;28;20048;-76
2022/11/24 15:49:00;;;;;;;16.75;8.90;;;;;;;7.80;75.80;100075.75;10472011;28;20118;-76
2022/11/24 15:54:04;;;;;;;;;;;;;;;7.85;75.99;100086.13;10483265;28;20040;-76
2022/11/24 15:59:13;;;;;;;18.65;11.32;;;;;;;7.82;75.91;100084.53;10475512;28;19927;-76
2022/11/24 16:04:22;;;;;;;21.80;12.63;;;;;;;7.77;76.16;100080.50;10475566;28;20048;-76
2022/11/24 16:09:24;;;;;;;19.15;11.27;;;;;;;7.63;76.26;100095.72;10465531;28;20047;-76
2022/11/24 16:14:29;;;;;;;37.15;14.13;;;;;;;7.39;76.65;100097.50;10465114;28;20459;-76
2022/11/24 16:19:31;;;;;;;24.33;12.93;;;;;;;7.27;77.55;100099.25;10471353;28;20037;-76
2022/11/24 16:24:41;;;;;;;24.05;13.15;;;;;;;7.21;78.13;100100.56;10481763;28;20052;-75
2022/11/24 16:29:45;;;;;;;31.60;16.48;;;;;;;7.11;78.12;100103.97;10483283;28;20143;-76
2022/11/24 16:34:48;;;;;;;30.65;17.10;;;;;;;7.01;78.64;100104.63;10487383;28;20040;-76
2022/11/24 16:39:51;;;;;;;27.23;14.93;;;;;;;6.94;79.05;100114.03;10476575;28;20052;-76
2022/11/24 16:44:55;;;;;;;28.63;14.82;;;;;;;6.89;79.32;100118.84;10465859;28;20087;-76
2022/11/24 16:49:58;;;;;;;22.63;13.05;;;;;;;6.91;79.72;100116.06;10487544;28;20485;-76
2022/11/24 16:55:01;;;;;;;28.17;16.95;;;;;;;7.00;80.14;100120.78;10468191;28;20494;-76
2022/11/24 17:00:07;;;;;;;27.25;14.70;;;;;;;7.06;79.92;100125.66;10477283;28;20043;-78
2022/11/24 17:05:10;;;;;;;28.92;13.05;;;;;;;7.05;79.59;100118.63;10484261;28;20076;-77
2022/11/24 17:10:12;;;;;;;29.55;13.32;;;;;;;7.02;79.48;100117.03;10474622;28;20055;-77
2022/11/24 17:15:16;;;;;;;26.58;11.85;;;;;;;6.91;79.32;100119.59;10465664;28;20144;-77
2022/11/24 17:20:37;;;;;;;54.70;25.35;;;;;;;6.77;79.44;100125.84;10470378;28;20036;-76
2022/11/24 17:25:40;;;;;;;39.80;18.45;;;;;;;6.67;79.62;100123.94;10462818;28;20047;-76
2022/11/24 17:30:44;;;;;;;24.50;13.27;;;;;;;6.57;79.94;100118.38;10470533;28;20136;-76
2022/11/24 17:35:47;;;;;;;28.48;13.52;;;;;;;6.54;79.90;100126.59;10475724;28;20073;-76
2022/11/24 17:40:50;;;;;;;28.77;14.00;;;;;;;6.44;79.91;100121.00;10470907;28;20044;-77
2022/11/24 17:45:55;;;;;;;26.38;13.30;;;;;;;6.38;79.98;100130.28;10454425;28;20079;-77
2022/11/24 17:50:59;;;;;;;27.75;13.07;;;;;;;6.30;80.08;100135.28;10469122;28;20047;-77
2022/11/24 17:56:03;;;;;;;20.63;11.95;;;;;;;6.26;80.14;100136.47;10482109;28;20120;-75
2022/11/24 18:01:08;;;;;;;27.60;11.35;;;;;;;6.21;80.14;100130.56;10484181;28;20374;-77
2022/11/24 18:06:13;;;;;;;23.77;11.52;;;;;;;6.21;79.91;100140.38;10477398;28;20557;-76
2022/11/24 18:11:18;;;;;;;27.58;12.70;;;;;;;6.16;79.54;100138.88;10478551;28;20040;-77
2022/11/24 18:16:26;;;;;;;30.02;15.52;;;;;;;6.10;79.58;100136.63;10474384;28;20048;-77
2022/11/24 18:21:29;;;;;;;28.33;15.57;;;;;;;6.03;79.49;100145.97;10472009;28;20135;-76
2022/11/24 18:26:32;;;;;;;22.67;12.50;;;;;;;5.93;79.87;100132.41;10481447;28;20509;-76
2022/11/24 18:31:36;;;;;;;24.15;12.05;;;;;;;5.86;79.78;100128.41;10474999;28;20128;-76
2022/11/24 18:36:39;;;;;;;21.00;10.25;;;;;;;5.81;79.66;100135.84;10460543;28;20048;-77
2022/11/24 18:41:42;;;;;;;34.70;14.68;;;;;;;5.78;79.74;100136.06;10470863;28;20047;-76
2022/11/24 18:46:46;;;;;;;29.83;10.32;;;;;;;5.73;79.64;100130.16;10479160;28;20045;-76
2022/11/24 18:51:49;;;;;;;23.92;10.68;;;;;;;5.69;79.53;100132.19;10488929;28;20124;-76
2022/11/24 18:56:52;;;;;;;41.60;18.98;;;;;;;5.67;79.56;100142.06;10478249;28;20045;-76
2022/11/24 19:01:56;;;;;;;43.72;18.42;;;;;;;5.63;79.35;100137.91;10479636;28;20144;-77
2022/11/24 19:07:00;;;;;;;69.38;29.38;;;;;;;5.56;79.34;100147.25;10486433;28;20045;-76
2022/11/24 19:12:03;;;;;;;121.60;47.50;;;;;;;5.49;79.34;100146.78;10482282;28;20116;-77
2022/11/24 19:17:07;;;;;;;23.08;12.85;;;;;;;5.44;79.68;100148.03;10491200;28;20152;-77
2022/11/24 19:22:12;;;;;;;33.97;14.82;;;;;;;5.44;79.80;100150.72;10472625;28;20044;-77
2022/11/24 19:27:15;;;;;;;23.42;11.75;;;;;;;5.38;79.61;100154.63;10480330;28;20120;-76
2022/11/24 19:32:19;;;;;;;27.13;13.70;;;;;;;5.31;79.71;100155.94;10484591;28;20075;-77
2022/11/24 19:37:22;;;;;;;28.08;13.88;;;;;;;5.23;79.62;100153.75;10470078;28;20044;-76
2022/11/24 19:42:25;;;;;;;26.13;12.02;;;;;;;5.19;79.73;100156.72;10477846;28;20044;-76
2022/11/24 19:47:29;;;;;;;30.38;14.82;;;;;;;5.19;79.73;100172.69;10482830;28;20516;-76
2022/11/24 19:52:32;;;;;;;24.30;12.73;;;;;;;5.13;79.69;100176.59;10467404;28;20258;-76
2022/11/24 19:57:35;;;;;;;25.13;10.07;;;;;;;5.09;79.71;100185.72;10480399;28;20112;-76
2022/11/24 20:02:39;;;;;;;22.63;11.25;;;;;;;5.07;79.64;100187.59;10478224;28;20055;-76
2022/11/24 20:07:42;;;;;;;18.20;10.18;;;;;;;5.01;79.60;100202.16;10479548;28;20040;-76
2022/11/24 20:12:45;;;;;;;25.30;8.73;;;;;;;5.02;79.77;100203.88;10479696;28;20525;-75
2022/11/24 20:17:49;;;;;;;14.77;8.50;;;;;;;5.04;79.74;100191.31;10464398;28;20448;-77
2022/11/24 20:22:55;;;;;;;21.00;8.93;;;;;;;5.04;79.72;100195.78;10461561;28;20073;-76
2022/11/24 20:27:57;;;;;;;31.33;9.70;;;;;;;5.04;79.55;100201.94;10491308;28;20227;-76
2022/11/24 20:33:02;;;;;;;15.90;7.00;;;;;;;5.05;79.65;100203.69;10480348;28;20041;-76
2022/11/24 20:38:05;;;;;;;16.92;6.85;;;;;;;5.13;79.43;100210.34;10476962;28;20079;-77
2022/11/24 20:43:08;;;;;;;19.40;6.60;;;;;;;5.15;79.14;100203.13;10471607;28;20049;-76
2022/11/24 20:48:12;;;;;;;15.50;5.90;;;;;;;5.16;79.07;100211.03;10482262;28;20041;-76
2022/11/24 20:53:15;;;;;;;16.98;7.57;;;;;;;5.15;78.83;100193.31;10480932;28;20047;-76
2022/11/24 20:58:18;;;;;;;23.27;9.32;;;;;;;5.13;78.75;100200.56;10479303;28;20048;-76
2022/11/24 21:03:22;;;;;;;23.50;11.35;;;;;;;5.09;78.46;100201.69;10477989;28;20044;-76
2022/11/24 21:08:25;;;;;;;23.25;6.53;;;;;;;5.01;78.30;100206.63;10457454;28;20398;-76
2022/11/24 21:13:49;;;;;;;19.38;5.60;;;;;;;4.96;78.21;100209.50;10473621;28;20052;-76
2022/11/24 21:18:56;;;;;;;17.95;6.75;;;;;;;4.92;78.25;100207.16;10427362;28;20084;-80
2022/11/24 21:23:59;;;;;;;22.00;6.20;;;;;;;4.87;78.39;100203.91;10423748;28;20045;-77
2022/11/24 21:29:02;;;;;;;20.73;5.88;;;;;;;4.84;77.99;100215.59;10456952;28;20118;-78
2022/11/24 21:34:08;;;;;;;18.70;5.22;;;;;;;4.78;78.17;100213.31;10470342;28;20048;-77
2022/11/24 21:39:12;;;;;;;15.77;4.80;;;;;;;4.68;78.18;100206.81;10464218;28;20457;-76
2022/11/24 21:44:15;;;;;;;17.92;5.10;;;;;;;4.55;77.90;100207.53;10467171;28;20037;-77
2022/11/24 21:49:19;;;;;;;16.77;6.97;;;;;;;4.36;77.73;100201.56;10465686;28;20041;-77
2022/11/24 21:54:22;;;;;;;20.70;7.80;;;;;;;4.14;78.34;100199.28;10455424;28;20763;-77
2022/11/24 21:59:25;;;;;;;26.38;8.20;;;;;;;4.18;78.27;100206.16;10469246;28;20041;-77
2022/11/24 22:04:29;;;;;;;20.67;8.13;;;;;;;4.16;78.62;100206.22;10447859;28;20052;-77
2022/11/24 22:09:32;;;;;;;22.10;8.48;;;;;;;4.20;78.86;100198.06;10436286;28;20053;-78
2022/11/24 22:14:35;;;;;;;31.48;8.30;;;;;;;4.20;78.68;100200.72;10462606;28;20517;-78
2022/11/24 22:19:43;;;;;;;17.50;7.65;;;;;;;4.14;78.96;100204.59;10470591;28;20060;-78
2022/11/24 22:24:46;;;;;;;18.08;8.25;;;;;;;4.16;79.03;100208.88;10457718;28;20045;-77
2022/11/24 22:29:49;;;;;;;19.40;8.25;;;;;;;4.13;79.03;100202.91;10448599;28;20107;-77
2022/11/24 22:34:57;;;;;;;21.67;8.18;;;;;;;4.07;78.96;100198.78;10453280;28;20041;-78
2022/11/24 22:40:00;;;;;;;20.63;7.28;;;;;;;4.02;78.87;100194.69;10420380;28;20140;-79
2022/11/24 22:45:03;;;;;;;27.13;7.93;;;;;;;3.96;78.90;100195.88;10458163;28;20405;-78
2022/11/24 22:50:08;;;;;;;24.73;8.05;;;;;;;3.87;78.69;100185.78;10457387;28;20072;-78
2022/11/24 22:55:11;;;;;;;15.68;8.02;;;;;;;3.83;78.95;100190.38;10434977;28;20049;-78
2022/11/24 23:00:15;;;;;;;25.65;7.32;;;;;;;3.77;78.92;100195.19;10455406;28;20053;-78
2022/11/24 23:05:19;;;;;;;17.45;6.97;;;;;;;3.70;78.71;100198.22;10436571;28;20057;-77
2022/11/24 23:10:22;;;;;;;23.13;8.93;;;;;;;3.65;78.63;100184.31;10456095;28;20045;-77
2022/11/24 23:15:25;;;;;;;21.52;8.32;;;;;;;3.52;78.84;100175.31;10448854;28;20064;-77
2022/11/24 23:20:29;;;;;;;19.25;7.95;;;;;;;3.56;79.55;100182.16;10453131;28;20038;-78
2022/11/24 23:25:33;;;;;;;14.85;7.03;;;;;;;3.66;79.81;100178.06;10456074;28;20088;-77
2022/11/24 23:30:36;;;;;;;21.85;7.82;;;;;;;3.75;79.57;100182.00;10461039;28;20486;-76
2022/11/24 23:35:40;;;;;;;18.50;7.85;;;;;;;3.82;79.40;100183.38;10460598;28;20045;-78